Time;durP1;ratioP1;P1;durP2;ratioP2;P2;SDS_P1;SDS_P2;PMS_P1;PMS_P2;Temp;Humidity;BMP_temperature;BMP_pressure;BME280_temperature;BME280_humidity;BME280_pressure;Samples;Min_cycle;Max_cycle;Signal;HPM_P1;HPM_P2
2024/01/24 00:00:46;;;;;;;19.30;3.80;;;;;;;2.72;100.00;99633.41;107340;1280;73062;-65
2024/01/24 00:03:48;;;;;;;17.30;4.00;;;;;;;2.70;100.00;99630.84;107371;1279;67918;-62
2024/01/24 00:06:37;;;;;;;18.00;3.50;;;;;;;2.68;100.00;99614.52;107301;1279;72756;-63
2024/01/24 00:09:26;;;;;;;18.90;3.30;;;;;;;2.67;100.00;99608.96;107214;1279;58462;-64
2024/01/24 00:12:14;;;;;;;13.40;2.80;;;;;;;2.63;100.00;99593.59;107025;1280;60160;-64
2024/01/24 00:15:04;;;;;;;15.90;3.00;;;;;;;2.61;100.00;99586.70;107312;1280;74229;-63
2024/01/24 00:17:52;;;;;;;19.30;3.20;;;;;;;2.60;100.00;99588.47;107393;1280;67891;-64
2024/01/24 00:20:40;;;;;;;16.50;3.50;;;;;;;2.59;100.00;99584.52;107398;1279;73073;-66
2024/01/24 00:23:28;;;;;;;16.00;3.60;;;;;;;2.55;100.00;99562.27;106661;1280;1002304;-63
2024/01/24 00:26:15;;;;;;;26.00;4.40;;;;;;;2.54;100.00;99559.91;107350;1280;58766;-63
2024/01/24 00:29:03;;;;;;;18.80;3.40;;;;;;;2.51;100.00;99559.87;107146;1280;73014;-64
2024/01/24 00:31:53;;;;;;;16.00;3.60;;;;;;;2.50;100.00;99547.83;107279;1280;67725;-63
2024/01/24 00:34:41;;;;;;;17.20;3.40;;;;;;;2.50;100.00;99529.48;107247;1280;72409;-62
2024/01/24 00:37:29;;;;;;;13.70;3.20;;;;;;;2.50;100.00;99509.13;107133;1280;57406;-64
2024/01/24 00:40:16;;;;;;;19.70;3.60;;;;;;;2.49;100.00;99497.61;107325;1279;61055;-64
2024/01/24 00:43:05;;;;;;;23.40;4.30;;;;;;;2.51;100.00;99489.30;107019;1280;73081;-63
2024/01/24 00:45:52;;;;;;;17.40;3.50;;;;;;;2.54;100.00;99480.02;107280;1280;68013;-64
2024/01/24 00:48:40;;;;;;;17.50;3.30;;;;;;;2.54;100.00;99481.58;107367;1280;71466;-65
2024/01/24 00:51:28;;;;;;;18.10;3.40;;;;;;;2.54;100.00;99478.98;107158;1280;57265;-64
2024/01/24 00:54:16;;;;;;;16.90;3.50;;;;;;;2.55;100.00;99491.37;107178;1280;59056;-63
2024/01/24 00:57:04;;;;;;;22.40;3.10;;;;;;;2.56;100.00;99486.24;107373;1280;71768;-64
2024/01/24 00:59:52;;;;;;;19.50;4.20;;;;;;;2.51;100.00;99480.69;107082;1280;68441;-64
2024/01/24 01:02:40;;;;;;;21.90;4.30;;;;;;;2.54;100.00;99482.80;107152;1280;73506;-65
2024/01/24 01:05:28;;;;;;;19.30;4.10;;;;;;;2.54;100.00;99475.62;107328;1280;58919;-64
2024/01/24 01:08:16;;;;;;;14.90;3.20;;;;;;;2.55;100.00;99475.04;107161;1280;60378;-64
2024/01/24 01:11:07;;;;;;;15.50;3.30;;;;;;;2.57;100.00;99463.08;107187;1280;72119;-64
2024/01/24 01:13:55;;;;;;;17.40;3.80;;;;;;;2.56;100.00;99459.10;107369;1280;66175;-64
2024/01/24 01:16:43;;;;;;;15.00;3.10;;;;;;;2.56;100.00;99448.39;107162;1279;71432;-63
2024/01/24 01:19:30;;;;;;;21.60;4.30;;;;;;;2.55;100.00;99444.42;107373;1280;57317;-66
2024/01/24 01:22:20;;;;;;;16.60;3.50;;;;;;;2.56;100.00;99435.27;107236;1279;60075;-66
2024/01/24 01:25:08;;;;;;;17.50;3.50;;;;;;;2.54;100.00;99425.38;107351;1279;73027;-63
2024/01/24 01:27:56;;;;;;;25.10;4.20;;;;;;;2.55;100.00;99410.23;107335;1280;68711;-64
2024/01/24 01:30:44;;;;;;;16.70;3.70;;;;;;;2.57;100.00;99383.70;107351;1279;72630;-63
2024/01/24 01:33:32;;;;;;;17.90;3.50;;;;;;;2.57;100.00;99374.61;107378;1279;58669;-63
2024/01/24 01:36:20;;;;;;;22.80;3.80;;;;;;;2.56;100.00;99362.04;107173;1279;60174;-64
2024/01/24 01:39:10;;;;;;;13.00;3.80;;;;;;;2.54;100.00;99348.82;107175;1279;72854;-64
2024/01/24 01:41:58;;;;;;;17.00;3.50;;;;;;;2.52;100.00;99346.31;107357;1280;68640;-67
2024/01/24 01:44:46;;;;;;;22.30;3.80;;;;;;;2.50;100.00;99339.27;107352;1280;72706;-63
2024/01/24 01:47:34;;;;;;;18.70;3.50;;;;;;;2.51;100.00;99332.58;107313;1280;58524;-64
2024/01/24 01:50:23;;;;;;;15.90;3.60;;;;;;;2.50;100.00;99325.23;107328;1280;61231;-63
2024/01/24 01:53:11;;;;;;;16.20;3.40;;;;;;;2.49;100.00;99323.89;107186;1279;71796;-64
2024/01/24 01:55:59;;;;;;;17.30;3.30;;;;;;;2.49;100.00;99312.71;107192;1280;66723;-63
2024/01/24 01:58:49;;;;;;;13.10;3.10;;;;;;;2.48;100.00;99301.02;107334;1279;72941;-64
2024/01/24 02:01:38;;;;;;;16.90;2.90;;;;;;;2.49;100.00;99297.11;107162;1279;57318;-63
2024/01/24 02:04:27;;;;;;;15.10;3.30;;;;;;;2.47;100.00;99298.47;107195;1280;61729;-63
2024/01/24 02:07:15;;;;;;;14.90;3.60;;;;;;;2.44;100.00;99282.35;107028;1280;73848;-63
2024/01/24 02:10:04;;;;;;;18.20;3.50;;;;;;;2.43;100.00;99272.06;107374;1280;67728;-64
2024/01/24 02:12:51;;;;;;;20.30;3.60;;;;;;;2.40;100.00;99254.90;107145;1280;72874;-64
2024/01/24 02:15:39;;;;;;;18.80;3.60;;;;;;;2.39;100.00;99247.60;107322;1280;58690;-64
2024/01/24 02:18:28;;;;;;;18.60;3.50;;;;;;;2.37;100.00;99248.58;107141;1280;59065;-65
2024/01/24 02:21:16;;;;;;;15.40;4.00;;;;;;;2.38;100.00;99238.04;106607;1280;1002166;-65
2024/01/24 02:24:22;;;;;;;12.80;2.90;;;;;;;2.33;100.00;99219.20;107200;1279;66795;-65
2024/01/24 02:27:10;;;;;;;17.60;4.00;;;;;;;2.37;100.00;99212.02;107361;1279;72945;-64
2024/01/24 02:29:58;;;;;;;15.50;3.10;;;;;;;2.36;100.00;99186.48;107308;1280;58530;-64
2024/01/24 02:32:47;;;;;;;21.10;4.10;;;;;;;2.38;100.00;99173.59;107405;1280;60442;-65
2024/01/24 02:35:36;;;;;;;21.30;3.80;;;;;;;2.40;100.00;99165.98;107221;1279;71874;-66
2024/01/24 02:38:23;;;;;;;14.70;3.70;;;;;;;2.38;100.00;99156.27;107166;1280;68946;-66
2024/01/24 02:41:11;;;;;;;18.60;3.70;;;;;;;2.37;100.00;99148.45;107287;1279;72694;-65
2024/01/24 02:43:59;;;;;;;19.30;2.90;;;;;;;2.37;100.00;99137.96;107256;1279;57404;-65
2024/01/24 02:46:47;;;;;;;20.60;3.90;;;;;;;2.33;100.00;99124.00;107228;1280;58680;-64
2024/01/24 02:49:36;;;;;;;16.90;3.50;;;;;;;2.31;100.00;99106.61;107365;1280;73820;-64
2024/01/24 02:52:24;;;;;;;17.00;3.00;;;;;;;2.30;100.00;99093.04;107322;1279;67793;-65
2024/01/24 02:55:15;;;;;;;18.00;3.20;;;;;;;2.28;100.00;99085.42;107079;1284;72881;-62
2024/01/24 02:58:03;;;;;;;22.20;3.60;;;;;;;2.27;100.00;99082.31;107295;1279;57493;-64
2024/01/24 03:00:51;;;;;;;17.90;4.40;;;;;;;2.28;100.00;99082.64;107310;1279;58982;-64
2024/01/24 03:03:43;;;;;;;19.10;4.70;;;;;;;2.31;100.00;99075.10;107413;1279;73003;-63
2024/01/24 03:06:33;;;;;;;17.50;3.70;;;;;;;2.33;100.00;99060.63;107392;1280;67765;-63
2024/01/24 03:09:22;;;;;;;14.80;3.80;;;;;;;2.34;100.00;99050.24;107216;1280;72402;-63
2024/01/24 03:12:12;;;;;;;11.80;2.70;;;;;;;2.33;100.00;99021.40;107113;1280;57533;-63
2024/01/24 03:15:00;;;;;;;17.60;3.30;;;;;;;2.34;100.00;99022.92;107120;1280;61102;-65
2024/01/24 03:17:47;;;;;;;15.80;3.00;;;;;;;2.35;100.00;99022.53;107354;1279;74245;-64
2024/01/24 03:20:37;;;;;;;13.70;3.30;;;;;;;2.38;100.00;99013.91;107397;1279;68112;-64
2024/01/24 03:23:26;;;;;;;14.40;2.80;;;;;;;2.41;100.00;99006.08;107276;1279;72430;-64
2024/01/24 03:26:15;;;;;;;15.50;3.50;;;;;;;2.42;100.00;98992.52;107335;1280;57352;-63
2024/01/24 03:29:03;;;;;;;16.50;2.70;;;;;;;2.37;100.00;98975.86;107336;1279;61196;-64
2024/01/24 03:31:51;;;;;;;12.90;3.10;;;;;;;2.39;100.00;98967.65;107371;1279;73996;-63
2024/01/24 03:34:39;;;;;;;15.30;3.60;;;;;;;2.40;100.00;98954.11;107376;1279;66483;-62
2024/01/24 03:37:27;;;;;;;15.20;3.40;;;;;;;2.43;100.00;98938.75;107306;1280;71736;-63
2024/01/24 03:40:15;;;;;;;16.50;8.00;;;;;;;2.44;100.00;98931.83;107275;1280;57395;-65
2024/01/24 03:43:05;;;;;;;11.00;3.20;;;;;;;2.41;100.00;98922.74;107377;1280;60372;-62
2024/01/24 03:45:52;;;;;;;14.50;5.20;;;;;;;2.37;100.00;98906.52;107068;1279;71735;-64
2024/01/24 03:48:40;;;;;;;15.90;3.60;;;;;;;2.31;100.00;98898.11;107391;1279;66519;-63
2024/01/24 03:51:28;;;;;;;14.50;3.30;;;;;;;2.23;100.00;98887.74;107141;1280;70450;-64
2024/01/24 03:54:16;;;;;;;13.20;3.40;;;;;;;2.16;100.00;98873.66;107347;1280;57418;-64
2024/01/24 03:57:04;;;;;;;16.00;5.30;;;;;;;2.08;100.00;98852.33;107355;1279;60321;-61
2024/01/24 03:59:52;;;;;;;14.80;3.40;;;;;;;2.00;100.00;98846.98;107365;1280;71834;-63
2024/01/24 04:02:40;;;;;;;20.20;4.00;;;;;;;1.93;100.00;98828.56;107378;1279;67964;-64
2024/01/24 04:05:28;;;;;;;24.30;4.40;;;;;;;1.87;100.00;98815.27;107337;1280;72754;-63
2024/01/24 04:08:15;;;;;;;19.70;3.70;;;;;;;1.80;100.00;98795.45;107273;1280;58740;-65
2024/01/24 04:11:03;;;;;;;16.40;3.40;;;;;;;1.75;100.00;98783.15;107315;1280;59467;-64
2024/01/24 04:13:56;;;;;;;13.70;3.20;;;;;;;1.70;100.00;98776.61;107264;1281;73084;-62
2024/01/24 04:16:44;;;;;;;16.10;3.40;;;;;;;1.65;100.00;98767.10;107340;1280;67778;-62
2024/01/24 04:19:31;;;;;;;14.80;3.70;;;;;;;1.62;100.00;98762.74;107259;1280;72728;-62
2024/01/24 04:22:20;;;;;;;14.60;4.00;;;;;;;1.59;100.00;98755.42;107366;1280;58590;-62
2024/01/24 04:25:08;;;;;;;12.40;3.00;;;;;;;1.56;100.00;98745.27;107154;1280;61404;-61
2024/01/24 04:27:57;;;;;;;13.40;3.80;;;;;;;1.50;100.00;98738.52;107270;1280;73142;-62
2024/01/24 04:30:45;;;;;;;14.60;3.90;;;;;;;1.45;100.00;98732.52;107320;1280;67745;-62
2024/01/24 04:33:33;;;;;;;11.30;3.20;;;;;;;1.41;100.00;98719.49;107352;1280;71445;-61
2024/01/24 04:36:21;;;;;;;12.50;3.80;;;;;;;1.37;100.00;98707.64;107247;1283;58559;-62
2024/01/24 04:39:10;;;;;;;15.10;4.80;;;;;;;1.34;100.00;98694.01;107338;1280;60453;-62
2024/01/24 04:41:58;;;;;;;15.70;3.40;;;;;;;1.32;100.00;98672.10;107360;1280;73349;-62
2024/01/24 04:44:58;;;;;;;8.90;3.40;;;;;;;1.31;100.00;98652.11;107292;1280;67919;-62
2024/01/24 04:47:46;;;;;;;12.40;3.10;;;;;;;1.29;100.00;98638.42;107305;1280;71259;-61
2024/01/24 04:50:33;;;;;;;12.50;3.70;;;;;;;1.29;100.00;98624.06;107190;1280;59665;-62
2024/01/24 04:53:23;;;;;;;15.50;4.00;;;;;;;1.29;100.00;98608.02;107339;1280;58741;-64
2024/01/24 04:56:14;;;;;;;12.50;4.20;;;;;;;1.29;100.00;98592.97;107283;1279;73113;-61
2024/01/24 04:59:02;;;;;;;11.50;3.40;;;;;;;1.30;100.00;98582.76;107308;1280;68058;-61
2024/01/24 05:01:50;;;;;;;9.70;3.00;;;;;;;1.30;100.00;98570.67;107326;1280;72465;-62
2024/01/24 05:04:38;;;;;;;11.90;3.70;;;;;;;1.32;100.00;98547.34;107335;1280;57338;-62
2024/01/24 05:07:26;;;;;;;10.30;3.10;;;;;;;1.35;100.00;98539.25;107025;1280;58972;-60
2024/01/24 05:10:14;;;;;;;9.90;3.30;;;;;;;1.40;100.00;98530.27;107385;1280;71551;-62
2024/01/24 05:13:02;;;;;;;7.60;2.80;;;;;;;1.44;100.00;98530.36;107371;1279;67672;-61
2024/01/24 05:15:50;;;;;;;10.30;3.30;;;;;;;1.47;100.00;98524.92;107338;1280;72525;-63
2024/01/24 05:18:39;;;;;;;10.00;3.30;;;;;;;1.51;100.00;98513.44;107345;1280;57404;-62
2024/01/24 05:21:27;;;;;;;14.40;3.90;;;;;;;1.57;100.00;98508.00;107391;1280;60404;-62
2024/01/24 05:24:15;;;;;;;10.90;3.40;;;;;;;1.61;100.00;98501.27;107483;1279;72821;-63
2024/01/24 05:27:03;;;;;;;8.40;3.00;;;;;;;1.65;100.00;98494.01;107473;1279;67959;-61
2024/01/24 05:29:51;;;;;;;10.30;2.70;;;;;;;1.70;100.00;98473.55;107462;1280;72458;-62
2024/01/24 05:32:39;;;;;;;8.20;2.30;;;;;;;1.73;100.00;98463.08;107308;1279;57507;-62
2024/01/24 05:35:27;;;;;;;8.60;2.50;;;;;;;1.75;100.00;98446.36;107454;1279;60476;-63
2024/01/24 05:38:16;;;;;;;9.60;2.70;;;;;;;1.77;100.00;98435.34;107322;1279;71740;-63
2024/01/24 05:41:04;;;;;;;7.70;2.40;;;;;;;1.79;100.00;98420.67;107285;1279;68055;-64
2024/01/24 05:43:52;;;;;;;7.90;2.60;;;;;;;1.82;100.00;98416.83;107265;1280;72478;-62
2024/01/24 05:46:40;;;;;;;7.60;2.60;;;;;;;1.84;100.00;98420.36;106702;1280;1002101;-62
2024/01/24 05:49:28;;;;;;;9.90;2.50;;;;;;;1.82;100.00;98411.19;107324;1280;58861;-62
2024/01/24 05:52:16;;;;;;;9.00;2.80;;;;;;;1.88;100.00;98406.48;107398;1280;73202;-63
2024/01/24 05:55:04;;;;;;;6.70;2.20;;;;;;;1.90;100.00;98401.21;107211;1279;67678;-64
2024/01/24 05:57:55;;;;;;;6.60;1.90;;;;;;;1.95;100.00;98387.79;107163;1282;73325;-61
2024/01/24 06:00:43;;;;;;;6.90;2.30;;;;;;;1.95;100.00;98390.74;107179;1280;57344;-66
2024/01/24 06:03:33;;;;;;;6.90;2.00;;;;;;;1.96;100.00;98384.38;107372;1279;58770;-62
2024/01/24 06:06:21;;;;;;;7.20;2.00;;;;;;;1.97;100.00;98376.99;106584;1279;1002684;-62
2024/01/24 06:09:10;;;;;;;6.70;2.30;;;;;;;1.97;100.00;98367.51;107367;1280;67581;-61
2024/01/24 06:11:59;;;;;;;6.60;2.30;;;;;;;1.96;100.00;98354.27;107279;1280;71521;-63
2024/01/24 06:14:46;;;;;;;7.00;2.20;;;;;;;1.97;100.00;98354.21;107291;1280;59679;-61
2024/01/24 06:17:35;;;;;;;7.30;2.00;;;;;;;1.96;100.00;98357.25;106401;1280;1002422;-62
2024/01/24 06:20:22;;;;;;;6.50;2.10;;;;;;;1.96;100.00;98350.83;107175;1281;74271;-61
2024/01/24 06:23:10;;;;;;;8.80;2.60;;;;;;;1.96;100.00;98344.98;107233;1281;67696;-63
2024/01/24 06:25:58;;;;;;;6.70;2.30;;;;;;;1.96;100.00;98336.28;107081;1281;71692;-64
2024/01/24 06:28:46;;;;;;;6.00;1.80;;;;;;;1.98;100.00;98328.59;107050;1281;57296;-64
2024/01/24 06:31:34;;;;;;;8.30;2.10;;;;;;;1.98;100.00;98313.89;107049;1282;58969;-64
2024/01/24 06:34:24;;;;;;;6.10;1.90;;;;;;;2.00;100.00;98300.45;106801;1283;74110;-62
2024/01/24 06:37:12;;;;;;;7.10;2.10;;;;;;;2.02;100.00;98288.77;106998;1281;66813;-63
2024/01/24 06:40:00;;;;;;;6.60;1.90;;;;;;;2.05;100.00;98280.20;106958;1281;73496;-62
2024/01/24 06:42:48;;;;;;;8.20;2.30;;;;;;;2.08;100.00;98275.79;106945;1281;58621;-62
2024/01/24 06:45:36;;;;;;;6.50;2.00;;;;;;;2.07;100.00;98256.94;106949;1281;60446;-63
2024/01/24 06:48:24;;;;;;;6.90;2.20;;;;;;;2.07;100.00;98250.31;107138;1281;72185;-62
2024/01/24 06:51:13;;;;;;;6.10;2.00;;;;;;;2.08;100.00;98250.39;107237;1279;66619;-63
2024/01/24 06:54:01;;;;;;;6.50;2.30;;;;;;;2.08;100.00;98246.89;107389;1279;72270;-62
2024/01/24 06:56:49;;;;;;;6.40;2.00;;;;;;;2.11;100.00;98243.21;107246;1279;57359;-62
2024/01/24 06:59:36;;;;;;;6.30;2.10;;;;;;;2.13;100.00;98225.91;107258;1280;60628;-62
2024/01/24 07:02:24;;;;;;;6.80;2.10;;;;;;;2.16;100.00;98213.27;107438;1280;71886;-63
2024/01/24 07:05:12;;;;;;;8.80;2.10;;;;;;;2.18;100.00;98205.25;107105;1281;67919;-64
2024/01/24 07:08:00;;;;;;;7.80;2.20;;;;;;;2.20;100.00;98207.05;107220;1279;72702;-62
2024/01/24 07:10:48;;;;;;;7.00;2.10;;;;;;;2.22;100.00;98209.17;107199;1284;57439;-61
2024/01/24 07:13:37;;;;;;;7.20;2.20;;;;;;;2.25;100.00;98186.74;107361;1280;59327;-60
2024/01/24 07:16:25;;;;;;;7.70;1.90;;;;;;;2.29;100.00;98190.42;107373;1280;74188;-61
2024/01/24 07:19:13;;;;;;;6.90;2.40;;;;;;;2.34;100.00;98196.75;107368;1280;67858;-61
2024/01/24 07:22:02;;;;;;;7.70;2.20;;;;;;;2.39;100.00;98182.86;107283;1280;73607;-61
2024/01/24 07:24:51;;;;;;;7.00;2.20;;;;;;;2.45;100.00;98169.17;107245;1280;58681;-61
2024/01/24 07:27:39;;;;;;;6.70;2.10;;;;;;;2.50;100.00;98164.23;107394;1280;60095;-64
2024/01/24 07:30:27;;;;;;;5.90;1.90;;;;;;;2.56;100.00;98156.94;107094;1279;72530;-63
2024/01/24 07:33:15;;;;;;;6.40;2.20;;;;;;;2.62;100.00;98161.23;107353;1279;65588;-61
2024/01/24 07:36:05;;;;;;;5.80;1.80;;;;;;;2.69;100.00;98165.77;107309;1280;72426;-62
2024/01/24 07:38:53;;;;;;;6.90;2.20;;;;;;;2.75;100.00;98173.93;107136;1280;59860;-61
2024/01/24 07:41:42;;;;;;;6.60;2.10;;;;;;;2.81;100.00;98175.23;107042;1280;58758;-61
2024/01/24 07:44:29;;;;;;;7.10;2.50;;;;;;;2.85;100.00;98178.05;107262;1279;73972;-61
2024/01/24 07:47:20;;;;;;;7.50;2.50;;;;;;;2.87;100.00;98167.02;107243;1280;68944;-60
2024/01/24 07:50:11;;;;;;;6.60;1.90;;;;;;;2.91;100.00;98158.69;107274;1280;71556;-62
2024/01/24 07:52:59;;;;;;;6.70;2.30;;;;;;;2.97;100.00;98151.95;107246;1281;58831;-61
2024/01/24 07:55:47;;;;;;;7.50;2.40;;;;;;;3.04;100.00;98141.90;107273;1280;61048;-60
2024/01/24 07:58:49;;;;;;;7.20;2.30;;;;;;;3.13;100.00;98137.05;107386;1280;73134;-61
2024/01/24 08:01:37;;;;;;;6.00;2.10;;;;;;;3.17;100.00;98142.72;107266;1280;67808;-63
2024/01/24 08:04:25;;;;;;;6.60;2.30;;;;;;;3.20;100.00;98137.90;107409;1281;72441;-63
2024/01/24 08:07:13;;;;;;;6.90;2.10;;;;;;;3.25;100.00;98131.36;107227;1279;59821;-60
2024/01/24 08:10:01;;;;;;;6.70;2.20;;;;;;;3.30;100.00;98127.46;107445;1280;61793;-62
2024/01/24 08:12:49;;;;;;;6.70;2.10;;;;;;;3.38;100.00;98115.63;107439;1280;70847;-60
2024/01/24 08:15:37;;;;;;;6.40;2.40;;;;;;;3.51;100.00;98108.48;107446;1280;66846;-62
2024/01/24 08:18:25;;;;;;;7.50;2.10;;;;;;;3.61;100.00;98101.05;107351;1281;72448;-62
2024/01/24 08:21:15;;;;;;;5.80;1.60;;;;;;;3.75;100.00;98091.65;107236;1280;59197;-59
2024/01/24 08:24:03;;;;;;;6.00;1.80;;;;;;;3.89;100.00;98078.11;107047;1280;60690;-63
2024/01/24 08:26:51;;;;;;;7.90;2.10;;;;;;;4.05;100.00;98083.74;107224;1280;72953;-61
2024/01/24 08:29:42;;;;;;;5.70;1.80;;;;;;;4.07;100.00;98098.73;107089;1280;67841;-60
2024/01/24 08:32:30;;;;;;;6.50;1.80;;;;;;;4.06;100.00;98089.98;107282;1280;70614;-62
2024/01/24 08:35:18;;;;;;;6.10;2.20;;;;;;;4.08;100.00;98078.23;105814;1280;1002436;-61
2024/01/24 08:38:05;;;;;;;8.60;2.00;;;;;;;4.11;100.00;98078.91;107148;1280;61380;-60
2024/01/24 08:40:53;;;;;;;5.40;1.30;;;;;;;4.16;100.00;98083.94;107175;1281;74079;-62
2024/01/24 08:43:41;;;;;;;6.30;1.70;;;;;;;4.22;100.00;98084.10;107330;1280;65997;-62
2024/01/24 08:46:28;;;;;;;5.20;1.50;;;;;;;4.29;100.00;98084.29;107282;1280;71511;-62
2024/01/24 08:49:16;;;;;;;5.40;1.60;;;;;;;4.33;100.00;98077.77;107025;1281;59676;-61
2024/01/24 08:52:05;;;;;;;5.90;1.60;;;;;;;4.40;100.00;98077.91;107293;1280;57812;-62
2024/01/24 08:54:53;;;;;;;6.00;1.70;;;;;;;4.47;100.00;98068.71;107038;1280;73102;-62
2024/01/24 08:57:42;;;;;;;6.00;1.80;;;;;;;4.53;100.00;98072.73;107216;1280;67848;-60
2024/01/24 09:00:30;;;;;;;6.40;1.90;;;;;;;4.60;100.00;98079.40;107201;1280;72363;-63
2024/01/24 09:03:18;;;;;;;6.60;1.70;;;;;;;4.67;100.00;98069.45;107293;1280;59760;-62
2024/01/24 09:06:07;;;;;;;6.50;1.80;;;;;;;4.77;100.00;98070.42;107248;1280;58907;-64
2024/01/24 09:08:56;;;;;;;5.60;1.90;;;;;;;4.94;100.00;98064.95;107256;1280;72973;-63
2024/01/24 09:11:44;;;;;;;6.90;2.20;;;;;;;5.02;100.00;98062.45;107038;1280;67609;-63
2024/01/24 09:14:47;;;;;;;6.30;1.90;;;;;;;5.03;100.00;98057.58;107284;1280;72406;-64
2024/01/24 09:17:35;;;;;;;5.90;1.80;;;;;;;5.07;100.00;98056.77;106956;1280;58041;-61
2024/01/24 09:20:24;;;;;;;6.50;1.90;;;;;;;5.09;100.00;98045.99;107290;1280;60401;-62
2024/01/24 09:23:13;;;;;;;6.70;1.70;;;;;;;5.14;100.00;98052.34;107255;1281;71495;-63
2024/01/24 09:26:04;;;;;;;6.10;1.90;;;;;;;5.16;100.00;98051.27;107072;1280;66582;-59
2024/01/24 09:28:52;;;;;;;6.80;1.90;;;;;;;5.20;100.00;98055.83;107252;1280;71351;-61
2024/01/24 09:31:46;;;;;;;7.20;2.20;;;;;;;5.25;100.00;98052.77;107090;1280;223356;-63
2024/01/24 09:34:36;;;;;;;6.50;2.10;;;;;;;5.29;100.00;98050.45;107290;1280;60110;-61
2024/01/24 09:37:24;;;;;;;6.30;2.10;;;;;;;5.37;100.00;98051.20;107263;1280;71739;-61
2024/01/24 09:40:16;;;;;;;7.20;2.20;;;;;;;5.39;100.00;98044.80;107270;1280;66757;-62
2024/01/24 09:43:08;;;;;;;6.00;1.90;;;;;;;5.39;100.00;98044.79;107056;1279;73819;-62
2024/01/24 09:45:57;;;;;;;7.00;2.20;;;;;;;5.45;100.00;98043.23;106966;1280;59313;-61
2024/01/24 09:48:46;;;;;;;7.10;2.10;;;;;;;5.46;100.00;98043.15;107109;1280;59969;-61
2024/01/24 09:51:35;;;;;;;6.70;2.00;;;;;;;5.48;100.00;98047.52;107169;1281;72767;-61
2024/01/24 09:54:24;;;;;;;6.60;1.90;;;;;;;5.51;100.00;98042.95;107047;1280;67673;-61
2024/01/24 09:57:12;;;;;;;6.10;1.80;;;;;;;5.54;100.00;98048.96;107252;1280;72510;-61
2024/01/24 10:00:01;;;;;;;6.50;1.90;;;;;;;5.59;100.00;98057.48;107178;1280;59851;-61
2024/01/24 10:02:51;;;;;;;9.20;1.80;;;;;;;5.66;100.00;98057.03;107253;1280;59686;-61
2024/01/24 10:05:40;;;;;;;9.60;2.10;;;;;;;5.79;100.00;98045.88;107103;1279;74050;-60
2024/01/24 10:08:29;;;;;;;6.90;2.40;;;;;;;6.02;100.00;98047.54;107130;1285;69361;-62
2024/01/24 10:11:17;;;;;;;11.60;2.10;;;;;;;6.14;100.00;98048.21;106959;1280;71296;-64
2024/01/24 10:14:06;;;;;;;11.20;1.80;;;;;;;6.20;100.00;98053.65;107289;1280;59329;-62
2024/01/24 10:16:53;;;;;;;11.60;2.30;;;;;;;6.27;100.00;98055.29;107253;1281;58779;-61
2024/01/24 10:19:41;;;;;;;13.50;3.20;;;;;;;6.34;100.00;98040.59;107236;1282;71070;-61
2024/01/24 10:22:29;;;;;;;14.20;3.60;;;;;;;6.42;100.00;98040.20;107217;1280;66949;-64
2024/01/24 10:25:17;;;;;;;14.20;2.60;;;;;;;6.46;100.00;98049.27;107417;1280;70488;-62
2024/01/24 10:28:13;;;;;;;19.80;3.40;;;;;;;6.48;100.00;98051.58;107251;1280;57995;-61
2024/01/24 10:31:03;;;;;;;15.20;3.10;;;;;;;6.50;100.00;98058.44;107271;1280;60134;-61
2024/01/24 10:33:57;;;;;;;20.70;4.40;;;;;;;6.55;100.00;98058.19;107216;1279;74144;-62
2024/01/24 10:36:46;;;;;;;17.90;3.60;;;;;;;6.57;100.00;98060.98;107251;1283;66905;-60
2024/01/24 10:39:39;;;;;;;22.90;4.20;;;;;;;6.61;100.00;98055.55;107218;1284;71208;-61
2024/01/24 10:42:35;;;;;;;24.40;5.90;;;;;;;6.62;100.00;98057.05;107401;1280;58465;-62
2024/01/24 10:45:26;;;;;;;21.00;4.40;;;;;;;6.67;100.00;98042.48;107417;1280;61045;-62
2024/01/24 10:48:15;;;;;;;21.20;4.20;;;;;;;6.75;100.00;98041.75;107350;1280;73947;-64
2024/01/24 10:51:04;;;;;;;21.00;3.90;;;;;;;6.80;100.00;98044.40;107274;1280;67738;-61
2024/01/24 10:53:54;;;;;;;21.50;3.60;;;;;;;6.89;100.00;98044.78;107237;1280;72667;-61
2024/01/24 10:56:49;;;;;;;21.40;4.00;;;;;;;6.93;100.00;98041.59;107243;1280;60486;-61
2024/01/24 10:59:39;;;;;;;18.30;3.00;;;;;;;7.00;100.00;98040.95;107112;1280;60444;-64
2024/01/24 11:02:26;;;;;;;22.60;4.50;;;;;;;6.99;100.00;98036.64;107369;1280;71570;-62
2024/01/24 11:05:33;;;;;;;20.90;4.70;;;;;;;7.00;100.00;98034.26;107297;1279;67958;-63
2024/01/24 11:08:48;;;;;;;24.10;3.90;;;;;;;7.00;100.00;98030.20;107445;1279;71679;-61
2024/01/24 11:11:41;;;;;;;21.50;4.00;;;;;;;6.98;100.00;98028.90;107427;1280;59570;-61
2024/01/24 11:14:30;;;;;;;19.90;3.70;;;;;;;7.02;100.00;98025.99;107290;1279;61120;-61
2024/01/24 11:17:20;;;;;;;19.10;3.40;;;;;;;7.07;100.00;98025.98;107112;1280;73093;-63
2024/01/24 11:20:10;;;;;;;23.80;4.00;;;;;;;7.07;100.00;98026.48;107257;1279;67723;-64
2024/01/24 11:22:58;;;;;;;24.00;3.70;;;;;;;7.09;100.00;98028.29;107352;1280;72737;-61
2024/01/24 11:25:46;;;;;;;20.40;3.30;;;;;;;7.10;100.00;98023.77;107240;1280;60373;-61
2024/01/24 11:28:34;;;;;;;18.90;4.00;;;;;;;7.15;100.00;98021.16;107284;1280;59074;-61
2024/01/24 11:31:40;;;;;;;19.20;3.60;;;;;;;7.29;100.00;98031.06;107436;1279;72840;-62
2024/01/24 11:34:28;;;;;;;23.30;4.50;;;;;;;7.41;100.00;98026.78;107299;1280;68944;-62
2024/01/24 11:37:16;;;;;;;22.20;4.00;;;;;;;7.41;100.00;98029.83;107439;1279;72358;-63
2024/01/24 11:40:05;;;;;;;18.50;3.50;;;;;;;7.34;100.00;98038.35;107245;1281;59291;-61
2024/01/24 11:42:57;;;;;;;20.80;3.90;;;;;;;7.33;100.00;98034.48;107397;1280;58918;-61
2024/01/24 11:45:45;;;;;;;19.40;4.10;;;;;;;7.31;100.00;98027.76;107240;1280;72988;-63
2024/01/24 11:48:38;;;;;;;21.50;4.40;;;;;;;7.27;100.00;98041.20;107313;1280;68201;-60
2024/01/24 11:51:27;;;;;;;23.20;4.10;;;;;;;7.22;100.00;98041.52;107427;1280;72796;-61
2024/01/24 11:54:15;;;;;;;19.60;3.90;;;;;;;7.14;100.00;98045.94;107419;1280;59186;-60
2024/01/24 11:57:03;;;;;;;24.10;3.50;;;;;;;7.08;100.00;98034.91;107161;1280;58843;-63
2024/01/24 11:59:51;;;;;;;23.50;4.30;;;;;;;7.05;100.00;98038.89;107246;1280;71611;-61
2024/01/24 12:02:39;;;;;;;19.40;3.50;;;;;;;7.11;100.00;98038.53;107327;1280;66599;-61
2024/01/24 12:05:27;;;;;;;22.20;3.70;;;;;;;7.07;100.00;98038.82;107212;1280;72754;-62
2024/01/24 12:08:17;;;;;;;23.80;4.80;;;;;;;6.99;100.00;98046.13;107342;1280;58151;-60
2024/01/24 12:11:09;;;;;;;25.70;4.80;;;;;;;6.93;100.00;98052.54;107381;1280;60479;-61
2024/01/24 12:13:57;;;;;;;17.00;3.80;;;;;;;6.90;100.00;98057.27;107455;1282;73134;-62
2024/01/24 12:16:46;;;;;;;21.80;4.90;;;;;;;6.80;100.00;98053.69;107452;1280;66654;-61
2024/01/24 12:19:35;;;;;;;20.30;4.50;;;;;;;6.75;100.00;98054.73;107272;1280;72980;-61
2024/01/24 12:22:24;;;;;;;27.50;5.20;;;;;;;6.70;100.00;98050.60;107061;1280;60499;-61
2024/01/24 12:25:15;;;;;;;23.40;4.70;;;;;;;6.71;100.00;98048.76;107309;1279;60000;-62
2024/01/24 12:28:05;;;;;;;26.20;4.50;;;;;;;6.71;100.00;98054.21;107157;1279;73120;-60
2024/01/24 12:30:57;;;;;;;21.30;4.60;;;;;;;6.70;100.00;98050.46;107098;1279;67187;-61
2024/01/24 12:33:46;;;;;;;24.80;4.80;;;;;;;6.72;100.00;98056.58;107338;1282;70736;-62
2024/01/24 12:36:34;;;;;;;24.10;4.60;;;;;;;6.78;100.00;98047.27;107263;1280;57992;-61
2024/01/24 12:39:33;;;;;;;20.10;3.70;;;;;;;6.77;100.00;98053.27;107355;1280;59198;-61
2024/01/24 12:42:21;;;;;;;18.80;3.90;;;;;;;6.77;100.00;98055.77;107369;1280;71994;-63
2024/01/24 12:45:14;;;;;;;21.80;4.50;;;;;;;6.77;100.00;98053.45;106929;1279;68305;-62
2024/01/24 12:48:09;;;;;;;27.50;4.30;;;;;;;6.76;100.00;98054.63;107172;1280;72548;-63
2024/01/24 12:50:58;;;;;;;21.30;4.20;;;;;;;6.73;100.00;98053.15;107155;1280;59583;-62
2024/01/24 12:53:46;;;;;;;16.70;3.50;;;;;;;6.70;100.00;98051.86;107299;1279;60095;-62
2024/01/24 12:56:34;;;;;;;20.90;3.90;;;;;;;6.63;100.00;98059.20;107285;1279;73151;-62
2024/01/24 12:59:22;;;;;;;15.70;4.20;;;;;;;6.55;100.00;98062.95;107139;1279;66936;-62